TimeCDT,TemperatureF,Dew PointF,Humidity,Sea Level PressureIn,VisibilityMPH,Wind Direction,Wind SpeedMPH,Gust SpeedMPH,PrecipitationIn,Events,Conditions,WindDirDegrees,DateUTC
12:55 AM,45.0,44.1,97,30.09,0.2,Calm,Calm,-,N/A,Fog,Fog,0,2013-09-29 05:55:00
1:27 AM,44.6,42.8,93,30.08,0.5,Calm,Calm,-,N/A,Fog,Fog,0,2013-09-29 06:27:00
1:55 AM,46.0,46.0,100,30.10,0.8,Calm,Calm,-,N/A,,Mist,0,2013-09-29 06:55:00
2:04 AM,44.6,44.6,100,30.09,0.5,West,3.5,-,N/A,Fog,Fog,260,2013-09-29 07:04:00
2:55 AM,45.0,45.0,100,30.09,0.2,West,3.5,-,N/A,Fog,Fog,270,2013-09-29 07:55:00
3:09 AM,46.4,46.4,100,30.08,0.8,Calm,Calm,-,N/A,,Mist,0,2013-09-29 08:09:00
3:17 AM,46.4,44.6,93,30.08,0.2,Calm,Calm,-,N/A,Fog,Fog,0,2013-09-29 08:17:00
3:55 AM,43.0,43.0,100,30.09,0.5,Calm,Calm,-,N/A,Fog,Fog,0,2013-09-29 08:55:00
4:05 AM,42.8,42.8,100,30.07,0.8,Calm,Calm,-,N/A,,Clear,0,2013-09-29 09:05:00
4:30 AM,42.8,42.8,100,30.07,1.0,Calm,Calm,-,N/A,,Clear,0,2013-09-29 09:30:00
4:52 AM,42.8,41.0,93,30.08,1.0,Calm,Calm,-,N/A,,Mist,0,2013-09-29 09:52:00
4:55 AM,42.1,41.0,96,30.09,0.8,Calm,Calm,-,N/A,,Mist,0,2013-09-29 09:55:00
5:13 AM,42.8,42.8,100,30.08,0.5,Calm,Calm,-,N/A,Fog,Fog,0,2013-09-29 10:13:00
5:21 AM,42.8,41.0,93,30.08,1.0,Calm,Calm,-,N/A,,Mist,0,2013-09-29 10:21:00
5:25 AM,41.0,41.0,100,30.08,2.0,Calm,Calm,-,N/A,,Partly Cloudy,0,2013-09-29 10:25:00
5:37 AM,42.8,42.8,100,30.08,0.8,WNW,3.5,-,N/A,,Mist,290,2013-09-29 10:37:00
5:46 AM,42.8,41.0,93,30.08,0.2,WNW,5.8,-,N/A,Fog,Fog,300,2013-09-29 10:46:00
5:55 AM,42.1,42.1,100,30.10,0.2,WNW,3.5,-,N/A,Fog,Fog,290,2013-09-29 10:55:00
6:28 AM,44.6,42.8,93,30.09,0.5,WNW,3.5,-,N/A,Fog,Fog,300,2013-09-29 11:28:00
6:55 AM,42.1,41.0,96,30.12,0.5,Calm,Calm,-,N/A,Fog,Fog,0,2013-09-29 11:55:00
7:32 AM,42.8,42.8,100,30.10,1.0,Calm,Calm,-,N/A,,Clear,0,2013-09-29 12:32:00
7:48 AM,44.6,42.8,93,30.10,3.0,Calm,Calm,-,N/A,,Clear,0,2013-09-29 12:48:00
7:55 AM,46.0,45.0,96,30.12,7.0,Calm,Calm,-,N/A,,Clear,0,2013-09-29 12:55:00
8:55 AM,57.0,52.0,83,30.12,10.0,Calm,Calm,-,N/A,,Clear,0,2013-09-29 13:55:00
9:55 AM,63.0,50.0,63,30.13,10.0,Calm,Calm,-,N/A,,Clear,0,2013-09-29 14:55:00
10:55 AM,64.0,45.0,50,30.12,10.0,East,3.5,-,N/A,,Clear,100,2013-09-29 15:55:00
11:55 AM,69.1,45.0,42,30.12,10.0,Calm,Calm,-,N/A,,Clear,0,2013-09-29 16:55:00
12:55 PM,70.0,45.0,41,30.09,10.0,Variable,5.8,-,N/A,,Clear,0,2013-09-29 17:55:00
1:55 PM,71.1,46.0,41,30.06,10.0,Variable,3.5,-,N/A,,Clear,0,2013-09-29 18:55:00
2:55 PM,72.0,45.0,38,30.04,10.0,Variable,3.5,-,N/A,,Clear,0,2013-09-29 19:55:00
3:55 PM,73.0,44.1,35,30.03,10.0,Variable,3.5,-,N/A,,Clear,0,2013-09-29 20:55:00
4:55 PM,72.0,44.1,37,30.02,10.0,ESE,5.8,-,N/A,,Clear,120,2013-09-29 21:55:00
5:55 PM,71.1,45.0,39,30.01,10.0,East,4.6,-,N/A,,Clear,90,2013-09-29 22:55:00
6:55 PM,66.9,45.0,45,30.01,10.0,ESE,4.6,-,N/A,,Clear,110,2013-09-29 23:55:00
7:55 PM,55.9,46.9,72,30.01,10.0,ESE,3.5,-,N/A,,Clear,110,2013-09-30 00:55:00
8:55 PM,52.0,46.0,80,30.02,10.0,SSE,3.5,-,N/A,,Clear,150,2013-09-30 01:55:00
9:55 PM,53.1,46.0,77,30.01,10.0,South,5.8,-,N/A,,Clear,170,2013-09-30 02:55:00
10:55 PM,54.0,46.9,77,30.01,10.0,SSE,4.6,-,N/A,,Clear,160,2013-09-30 03:55:00
11:55 PM,54.0,46.9,77,29.99,10.0,South,3.5,-,N/A,,Clear,180,2013-09-30 04:55:00